createdAt,value
2022-11-30T05:03:36.161Z,9.61
2022-11-30T05:07:40.534Z,9.58
2022-11-30T05:11:43.448Z,9.58
2022-11-30T05:15:46.670Z,9.61
2022-11-30T05:19:50.689Z,9.66
2022-11-30T05:23:53.343Z,9.62
2022-11-30T05:27:55.952Z,9.69
2022-11-30T05:31:58.553Z,9.69
2022-11-30T05:36:05.924Z,9.72
2022-11-30T05:40:13.853Z,9.70
2022-11-30T05:44:16.314Z,9.77
2022-11-30T05:48:19.118Z,9.69
2022-11-30T05:52:23.158Z,9.66
2022-11-30T05:56:25.866Z,9.69
2022-11-30T06:00:28.510Z,9.73
2022-11-30T06:04:31.329Z,9.74
2022-11-30T06:08:35.305Z,9.75
2022-11-30T06:12:37.933Z,9.73
2022-11-30T06:16:40.970Z,9.70
2022-11-30T06:20:43.760Z,9.72
2022-11-30T06:24:47.785Z,9.73
2022-11-30T06:28:50.506Z,9.74
2022-11-30T06:32:53.549Z,9.75
2022-11-30T06:36:58.388Z,9.84
2022-11-30T06:41:06.685Z,9.74
2022-11-30T06:45:10.623Z,9.62
2022-11-30T06:49:13.251Z,9.54
2022-11-30T06:53:15.825Z,9.58
2022-11-30T06:57:19.840Z,9.54
2022-11-30T07:01:22.672Z,9.57
2022-11-30T07:05:25.328Z,9.55
2022-11-30T07:09:28.127Z,9.56
2022-11-30T07:13:32.143Z,9.64
2022-11-30T07:17:34.784Z,9.70
2022-11-30T07:21:37.421Z,9.72
2022-11-30T07:25:57.492Z,9.72
2022-11-30T07:30:01.536Z,9.80
2022-11-30T07:34:06.737Z,9.81
2022-11-30T07:38:10.041Z,9.82
2022-11-30T07:42:12.708Z,9.86
2022-11-30T07:46:17.671Z,9.84
2022-11-30T07:50:20.305Z,9.87
2022-11-30T07:54:22.963Z,9.75
2022-11-30T07:58:25.573Z,9.69
2022-11-30T08:02:29.645Z,9.67
2022-11-30T08:06:32.761Z,9.75
2022-11-30T08:10:35.549Z,9.86
2022-11-30T08:15:11.103Z,9.93
2022-11-30T08:19:02.117Z,9.89
2022-11-30T08:23:04.800Z,9.84
2022-11-30T08:27:07.440Z,9.91
2022-11-30T08:31:13.113Z,9.82
2022-11-30T08:35:17.281Z,9.94
2022-11-30T08:39:19.957Z,9.94
2022-11-30T08:43:22.546Z,9.89
2022-11-30T08:47:25.281Z,9.98
2022-11-30T08:51:42.170Z,10.13
2022-11-30T08:55:58.664Z,10.18
2022-11-30T09:00:01.275Z,10.05
2022-11-30T09:04:03.943Z,10.10
2022-11-30T09:08:08.011Z,10.35
2022-11-30T09:12:10.703Z,10.45
2022-11-30T09:16:15.133Z,10.47
2022-11-30T09:20:18.040Z,10.40
2022-11-30T09:24:22.007Z,10.55
2022-11-30T09:28:24.979Z,10.71
2022-11-30T09:32:28.527Z,10.77
2022-11-30T09:36:32.914Z,10.77
2022-11-30T09:40:39.333Z,10.70
2022-11-30T09:44:53.277Z,10.77
2022-11-30T09:49:03.498Z,10.82
2022-11-30T09:53:12.604Z,10.79
2022-11-30T09:57:26.444Z,10.98
2022-11-30T10:01:32.725Z,11.18
2022-11-30T10:05:46.512Z,11.34
2022-11-30T10:10:23.886Z,11.14
2022-11-30T10:14:45.817Z,11.27
2022-11-30T10:18:56.057Z,11.32
2022-11-30T10:23:13.208Z,11.48
2022-11-30T10:27:18.894Z,11.45
2022-11-30T10:31:36.109Z,11.61
2022-11-30T10:35:42.317Z,11.24
2022-11-30T10:39:53.950Z,11.04
2022-11-30T10:44:03.911Z,10.85
2022-11-30T10:48:16.073Z,10.83
2022-11-30T10:52:23.234Z,10.80
2022-11-30T10:56:26.641Z,10.79
2022-11-30T11:00:29.262Z,10.90
2022-11-30T11:04:33.265Z,10.61
2022-11-30T11:08:36.347Z,10.59
2022-11-30T11:12:39.084Z,10.76
2022-11-30T11:16:56.899Z,10.94
2022-11-30T11:21:07.354Z,10.92
2022-11-30T11:25:20.286Z,10.87
2022-11-30T11:29:32.166Z,10.64
2022-11-30T11:33:34.816Z,10.20
2022-11-30T11:37:41.543Z,10.30
2022-11-30T11:41:44.196Z,9.89
2022-11-30T11:45:52.948Z,9.93
2022-11-30T11:50:09.282Z,9.80
2022-11-30T11:54:23.429Z,9.79
2022-11-30T11:58:36.369Z,9.83
2022-11-30T12:02:50.662Z,9.80
2022-11-30T12:06:56.640Z,9.76
2022-11-30T12:11:05.803Z,9.88
2022-11-30T12:15:12.280Z,9.72
2022-11-30T12:19:21.591Z,9.73
2022-11-30T12:23:44.032Z,9.52
2022-11-30T12:27:57.060Z,9.51
2022-11-30T12:32:17.550Z,9.47
2022-11-30T12:36:30.443Z,9.70
2022-11-30T12:40:42.340Z,9.51
2022-11-30T12:44:57.634Z,9.43
2022-11-30T12:49:13.550Z,9.23
2022-11-30T12:53:23.647Z,9.33
2022-11-30T12:57:31.435Z,9.40
2022-11-30T13:01:49.495Z,9.21
2022-11-30T13:05:58.118Z,9.27
2022-11-30T13:10:07.950Z,9.17
2022-11-30T13:14:14.953Z,9.05
2022-11-30T13:18:21.025Z,9.17
2022-11-30T13:22:27.854Z,9.19
2022-11-30T13:26:35.274Z,9.17
2022-11-30T13:30:43.487Z,9.11
2022-11-30T13:34:47.710Z,9.20
2022-11-30T13:39:10.078Z,9.48
2022-11-30T13:43:19.174Z,9.64
2022-11-30T13:47:30.134Z,9.81
2022-11-30T13:51:39.773Z,9.78
2022-11-30T13:56:00.577Z,9.85
2022-11-30T14:00:25.111Z,9.85
2022-11-30T14:04:32.898Z,9.77
2022-11-30T14:08:39.060Z,9.77
2022-11-30T14:13:00.659Z,9.66
2022-11-30T14:17:03.557Z,9.57
2022-11-30T14:21:16.607Z,9.74
2022-11-30T14:25:22.046Z,9.77
2022-11-30T14:29:28.948Z,9.57
2022-11-30T14:33:42.499Z,9.55
2022-11-30T14:37:47.846Z,9.71
2022-11-30T14:41:51.996Z,9.81
2022-11-30T14:46:04.670Z,9.94
2022-11-30T14:50:23.610Z,9.89
2022-11-30T14:54:48.387Z,10.01
2022-11-30T14:58:58.894Z,10.07
2022-11-30T15:03:01.612Z,9.80
2022-11-30T15:07:04.455Z,9.53
2022-11-30T15:11:09.289Z,9.68
2022-11-30T15:15:18.914Z,9.48
2022-11-30T15:19:24.438Z,9.37
2022-11-30T15:23:27.694Z,9.24
2022-11-30T15:27:30.592Z,9.10
2022-11-30T15:31:38.310Z,9.04
2022-11-30T15:36:13.850Z,9.00
2022-11-30T15:40:11.550Z,9.10
2022-11-30T15:44:25.037Z,9.15
2022-11-30T15:48:31.848Z,9.01
2022-11-30T15:52:34.671Z,9.06
2022-11-30T15:56:37.896Z,8.91
2022-11-30T16:00:40.540Z,8.97
2022-11-30T16:05:13.792Z,9.08
2022-11-30T16:09:23.767Z,9.09
2022-11-30T16:13:31.200Z,9.12
2022-11-30T16:17:33.928Z,9.03
2022-11-30T16:21:38.014Z,9.05
2022-11-30T16:25:42.018Z,9.09
2022-11-30T16:29:49.111Z,9.05
2022-11-30T16:33:54.563Z,9.19
2022-11-30T16:37:58.519Z,9.24
2022-11-30T16:42:01.124Z,9.27
2022-11-30T16:46:03.813Z,9.22
2022-11-30T16:50:08.243Z,9.16
2022-11-30T16:54:14.147Z,9.12
2022-11-30T16:58:16.746Z,9.15
2022-11-30T17:02:24.573Z,9.19
2022-11-30T17:06:27.738Z,9.24
2022-11-30T17:10:31.795Z,9.21
2022-11-30T17:14:34.416Z,9.19
2022-11-30T17:18:37.114Z,9.22
2022-11-30T17:22:40.124Z,9.12
2022-11-30T17:26:44.116Z,9.00
2022-11-30T17:30:46.821Z,8.97
2022-11-30T17:34:49.829Z,9.02
2022-11-30T17:38:52.696Z,9.05
2022-11-30T17:42:56.657Z,9.01
2022-11-30T17:46:59.256Z,9.05
2022-11-30T17:51:02.349Z,8.99
2022-11-30T17:55:05.345Z,8.94
2022-11-30T17:59:09.663Z,9.00
2022-11-30T18:03:12.307Z,8.99
2022-11-30T18:07:14.999Z,9.01
2022-11-30T18:11:20.214Z,8.97
2022-11-30T18:15:24.188Z,8.89
2022-11-30T18:19:26.875Z,8.93
2022-11-30T18:23:29.501Z,8.93
2022-11-30T18:27:32.097Z,9.11
2022-11-30T18:31:37.228Z,9.20
2022-11-30T18:35:39.828Z,9.10
2022-11-30T18:39:42.584Z,9.17
2022-11-30T18:43:45.221Z,9.23
2022-11-30T18:48:22.556Z,9.37
2022-11-30T18:52:26.555Z,9.33
2022-11-30T18:56:30.332Z,9.28
2022-11-30T19:00:32.951Z,9.21
2022-11-30T19:04:35.538Z,9.25
2022-11-30T19:08:40.883Z,8.97
2022-11-30T19:12:44.605Z,8.90
2022-11-30T19:16:47.822Z,8.97
2022-11-30T19:20:50.850Z,8.93
2022-11-30T19:24:54.788Z,8.90
2022-11-30T19:28:58.471Z,8.94
2022-11-30T19:33:01.068Z,8.95
2022-11-30T19:37:03.674Z,8.92
2022-11-30T19:41:08.793Z,8.96
2022-11-30T19:45:11.969Z,8.95
2022-11-30T19:49:14.556Z,8.85
2022-11-30T19:53:17.150Z,8.80
2022-11-30T19:57:21.165Z,8.74
2022-11-30T20:01:25.462Z,8.69
2022-11-30T20:05:28.533Z,8.63
2022-11-30T20:09:31.115Z,8.55
2022-11-30T20:13:35.100Z,8.57
2022-11-30T20:17:37.740Z,8.61
2022-11-30T20:21:40.351Z,8.61
2022-11-30T20:25:42.963Z,8.68
2022-11-30T20:29:46.899Z,8.79
2022-11-30T20:33:50.220Z,8.81
2022-11-30T20:37:53.062Z,8.81
2022-11-30T20:41:55.701Z,8.76
2022-11-30T20:45:59.750Z,8.75
2022-11-30T20:50:02.418Z,8.77
2022-11-30T20:54:07.422Z,8.64
2022-11-30T20:58:10.009Z,8.48
2022-11-30T21:02:14.077Z,8.47
2022-11-30T21:06:17.644Z,8.36
2022-11-30T21:10:20.763Z,8.44
2022-11-30T21:14:23.335Z,8.33
2022-11-30T21:18:27.327Z,8.38
2022-11-30T21:22:30.087Z,8.22
2022-11-30T21:26:34.421Z,8.13
2022-11-30T21:30:39.318Z,8.25
2022-11-30T21:34:43.330Z,7.97
2022-11-30T21:38:45.981Z,7.78
2022-11-30T21:42:48.635Z,7.73
2022-11-30T21:46:51.627Z,7.55
2022-11-30T21:51:00.474Z,7.75
2022-11-30T21:55:03.103Z,7.70
2022-11-30T21:59:07.282Z,7.51
